Time;durP1;ratioP1;P1;durP2;ratioP2;P2;SDS_P1;SDS_P2;PMS_P1;PMS_P2;Temp;Humidity;BMP_temperature;BMP_pressure;BME280_temperature;BME280_humidity;BME280_pressure;Samples;Min_cycle;Max_cycle;Signal;HPM_P1;HPM_P2
2023/06/05 00:01:06;;;;;;;0.00;0.00;;;14.00;99.90;;;;;;5009766;28;20420;-66
2023/06/05 00:03:32;;;;;;;0.20;0.20;;;14.00;99.90;;;;;;5011842;28;20041;-66
2023/06/05 00:05:57;;;;;;;0.38;0.32;;;14.00;99.90;;;;;;5011095;28;20056;-66
2023/06/05 00:08:23;;;;;;;0.28;0.28;;;14.10;99.90;;;;;;4999466;28;20038;-66
2023/06/05 00:10:48;;;;;;;0.13;0.13;;;14.00;99.90;;;;;;5004500;28;20073;-66
2023/06/05 00:13:15;;;;;;;0.22;0.22;;;14.00;99.90;;;;;;5003284;28;20046;-66
2023/06/05 00:15:40;;;;;;;0.03;0.03;;;14.10;99.90;;;;;;5002867;28;20046;-66
2023/06/05 00:18:06;;;;;;;0.52;0.52;;;14.00;99.90;;;;;;5008000;28;20105;-66
2023/06/05 00:20:31;;;;;;;0.32;0.32;;;14.00;99.90;;;;;;5008737;28;20049;-66
2023/06/05 00:22:57;;;;;;;0.55;0.47;;;13.90;99.90;;;;;;5011187;28;20042;-66
2023/06/05 00:25:23;;;;;;;0.20;0.20;;;13.90;99.90;;;;;;5005755;28;20042;-66
2023/06/05 00:27:49;;;;;;;0.22;0.13;;;14.00;99.90;;;;;;5009410;28;20080;-66
2023/06/05 00:30:14;;;;;;;0.00;0.00;;;14.00;99.90;;;;;;5011491;28;20077;-66
2023/06/05 00:32:42;;;;;;;0.00;0.00;;;13.90;99.90;;;;;;5006469;28;20402;-66
2023/06/05 00:35:08;;;;;;;0.08;0.08;;;13.90;99.90;;;;;;4996546;28;20092;-66
2023/06/05 00:37:34;;;;;;;2.97;0.45;;;13.90;99.90;;;;;;5002282;28;20117;-66
2023/06/05 00:39:59;;;;;;;0.00;0.00;;;13.80;99.90;;;;;;5002456;28;20569;-66
2023/06/05 00:42:28;;;;;;;0.10;0.10;;;13.90;99.90;;;;;;5011767;28;20038;-66
2023/06/05 00:44:54;;;;;;;0.00;0.00;;;13.90;99.90;;;;;;5011152;28;20100;-66
2023/06/05 00:47:21;;;;;;;0.10;0.10;;;13.90;99.90;;;;;;5002252;28;20054;-66
2023/06/05 00:49:47;;;;;;;1.00;0.65;;;13.80;99.90;;;;;;5010247;28;20046;-66
2023/06/05 00:52:14;;;;;;;0.03;0.03;;;13.80;99.90;;;;;;5005413;28;20042;-66
2023/06/05 00:54:40;;;;;;;0.00;0.00;;;13.80;99.90;;;;;;4996763;28;20117;-66
2023/06/05 00:57:07;;;;;;;0.00;0.00;;;13.70;99.90;;;;;;5007593;28;20109;-66
2023/06/05 00:59:34;;;;;;;0.00;0.00;;;13.80;99.90;;;;;;5007377;28;20041;-66
2023/06/05 01:02:01;;;;;;;0.05;0.05;;;13.80;99.90;;;;;;5008966;28;20054;-66
2023/06/05 01:04:28;;;;;;;0.13;0.10;;;13.80;99.90;;;;;;5008428;28;20054;-66
2023/06/05 01:06:57;;;;;;;14.35;1.95;;;13.70;99.90;;;;;;5011036;28;20046;-66
2023/06/05 01:09:25;;;;;;;0.10;0.10;;;13.80;99.90;;;;;;5026763;28;20056;-66
2023/06/05 01:12:03;;;;;;;0.80;0.20;;;13.80;99.90;;;;;;4995980;28;20850;-66
2023/06/05 01:14:32;;;;;;;0.20;0.20;;;13.80;99.90;;;;;;5001733;28;20690;-66
2023/06/05 01:17:00;;;;;;;0.00;0.00;;;13.70;99.90;;;;;;5007983;28;20053;-66
2023/06/05 01:19:31;;;;;;;0.05;0.05;;;13.70;99.90;;;;;;5010712;28;20099;-66
2023/06/05 01:21:57;;;;;;;0.43;0.30;;;13.60;99.90;;;;;;5006600;28;20034;-66
2023/06/05 01:24:25;;;;;;;0.00;0.00;;;13.60;99.90;;;;;;5002925;28;20401;-66
2023/06/05 01:27:07;;;;;;;0.00;0.00;;;13.60;99.90;;;;;;5010798;28;20720;-66
2023/06/05 01:29:55;;;;;;;0.10;0.10;;;13.70;99.90;;;;;;5008135;28;20501;-66
2023/06/05 01:32:36;;;;;;;3.72;0.70;;;13.70;99.90;;;;;;5008360;28;20053;-66
2023/06/05 01:35:07;;;;;;;0.00;0.00;;;13.60;99.90;;;;;;5011999;28;20056;-66
2023/06/05 01:37:36;;;;;;;0.10;0.10;;;13.60;99.90;;;;;;5013391;28;20050;-66
2023/06/05 01:40:06;;;;;;;0.20;0.20;;;13.60;99.90;;;;;;5014423;28;20033;-66
2023/06/05 01:42:32;;;;;;;0.00;0.00;;;13.60;99.90;;;;;;5012476;28;20084;-66
2023/06/05 01:44:58;;;;;;;0.00;0.00;;;13.60;99.90;;;;;;5011382;28;20053;-66
2023/06/05 01:47:25;;;;;;;0.03;0.03;;;13.60;99.90;;;;;;5014671;28;20088;-66
2023/06/05 01:49:50;;;;;;;0.03;0.03;;;13.60;99.90;;;;;;5005861;28;20517;-66
2023/06/05 01:52:16;;;;;;;0.00;0.00;;;13.50;99.90;;;;;;5039224;28;20176;-66
2023/06/05 01:54:42;;;;;;;0.05;0.05;;;13.60;99.90;;;;;;5012048;28;20046;-66
2023/06/05 01:57:09;;;;;;;0.00;0.00;;;13.50;99.90;;;;;;5013178;28;20359;-66
2023/06/05 01:59:35;;;;;;;0.20;0.20;;;13.50;99.90;;;;;;5000494;28;20502;-66
2023/06/05 02:02:00;;;;;;;0.00;0.00;;;13.50;99.90;;;;;;5041016;28;20181;-66
2023/06/05 02:04:29;;;;;;;0.22;0.22;;;13.50;99.90;;;;;;5014821;28;20161;-66
2023/06/05 02:06:55;;;;;;;0.13;0.13;;;13.40;99.90;;;;;;5011682;28;20556;-66
2023/06/05 02:09:20;;;;;;;0.00;0.00;;;13.40;99.90;;;;;;5012056;28;20103;-66
2023/06/05 02:11:47;;;;;;;0.10;0.10;;;13.40;99.90;;;;;;5014585;28;20026;-66
2023/06/05 02:14:13;;;;;;;0.20;0.20;;;13.40;99.90;;;;;;5029708;28;20057;-66
2023/06/05 02:16:40;;;;;;;0.00;0.00;;;13.40;99.90;;;;;;5009663;28;20041;-66
2023/06/05 02:19:06;;;;;;;0.10;0.10;;;13.40;99.90;;;;;;5006531;28;20049;-66
2023/06/05 02:21:32;;;;;;;1.48;1.38;;;13.40;99.90;;;;;;5002625;28;20075;-66
2023/06/05 02:24:02;;;;;;;0.10;0.10;;;13.40;99.90;;;;;;5007444;28;20041;-66
2023/06/05 02:26:28;;;;;;;0.08;0.08;;;13.40;99.90;;;;;;5009782;28;20128;-66
2023/06/05 02:28:55;;;;;;;0.08;0.08;;;13.40;99.90;;;;;;5011963;28;20129;-66
2023/06/05 02:31:25;;;;;;;0.10;0.10;;;13.40;99.90;;;;;;5003991;28;20057;-66
2023/06/05 02:33:55;;;;;;;0.10;0.10;;;13.50;99.90;;;;;;5011758;28;20048;-66
2023/06/05 02:36:22;;;;;;;0.10;0.10;;;13.60;99.90;;;;;;5010570;28;20145;-66
2023/06/05 02:38:49;;;;;;;0.10;0.10;;;13.60;99.90;;;;;;5001485;28;20088;-66
2023/06/05 02:41:16;;;;;;;0.20;0.20;;;13.60;99.90;;;;;;5013255;28;20034;-66
2023/06/05 02:43:43;;;;;;;0.20;0.20;;;13.50;99.90;;;;;;5012947;28;20479;-66
2023/06/05 02:46:08;;;;;;;0.50;0.50;;;13.50;99.90;;;;;;5009355;28;20046;-66
2023/06/05 02:48:34;;;;;;;0.22;0.22;;;13.50;99.90;;;;;;5005313;28;20056;-66
2023/06/05 02:51:00;;;;;;;0.00;0.00;;;13.40;99.90;;;;;;5011095;28;20038;-66
2023/06/05 02:53:25;;;;;;;0.05;0.05;;;13.40;99.90;;;;;;5010362;28;20057;-66
2023/06/05 02:55:52;;;;;;;0.30;0.30;;;13.40;99.90;;;;;;5013217;28;20109;-66
2023/06/05 02:58:17;;;;;;;0.00;0.00;;;13.40;99.90;;;;;;5003741;28;20531;-66
2023/06/05 03:00:44;;;;;;;0.17;0.17;;;13.40;99.90;;;;;;5011800;28;20042;-66
2023/06/05 03:03:11;;;;;;;0.20;0.15;;;13.40;99.90;;;;;;5002982;28;20053;-66
2023/06/05 03:05:36;;;;;;;0.10;0.10;;;13.50;99.90;;;;;;5008654;28;20130;-66
2023/06/05 03:08:03;;;;;;;0.10;0.10;;;13.40;99.90;;;;;;5010586;28;20121;-66
2023/06/05 03:10:29;;;;;;;0.00;0.00;;;13.50;99.90;;;;;;5010409;28;20050;-66
2023/06/05 03:12:55;;;;;;;0.38;0.38;;;13.40;99.90;;;;;;5006766;28;20041;-66
2023/06/05 03:15:20;;;;;;;0.00;0.00;;;13.40;99.90;;;;;;5013272;28;20551;-66
2023/06/05 03:17:47;;;;;;;0.00;0.00;;;13.40;99.90;;;;;;5012870;28;20077;-66
2023/06/05 03:20:12;;;;;;;0.00;0.00;;;13.40;99.90;;;;;;5008543;28;20046;-66
2023/06/05 03:22:39;;;;;;;5.88;0.63;;;13.40;99.90;;;;;;5005044;28;20045;-66
2023/06/05 03:25:05;;;;;;;0.10;0.10;;;13.40;99.90;;;;;;5012871;28;20070;-66
2023/06/05 03:27:31;;;;;;;0.00;0.00;;;13.40;99.90;;;;;;5005939;28;20049;-66
2023/06/05 03:29:58;;;;;;;0.10;0.10;;;13.40;99.90;;;;;;5005639;28;20056;-66
2023/06/05 03:32:24;;;;;;;0.00;0.00;;;13.40;99.90;;;;;;5011763;28;20508;-66
2023/06/05 03:34:50;;;;;;;0.13;0.13;;;13.40;99.90;;;;;;5003007;28;20042;-66
2023/06/05 03:37:16;;;;;;;0.15;0.15;;;13.40;99.90;;;;;;5007608;28;20041;-66
2023/06/05 03:39:41;;;;;;;0.00;0.00;;;13.30;99.90;;;;;;5007583;28;20038;-66
2023/06/05 03:42:09;;;;;;;0.38;0.38;;;13.30;99.90;;;;;;5000082;28;20050;-66
2023/06/05 03:44:35;;;;;;;0.10;0.10;;;13.40;99.90;;;;;;5009662;28;20046;-66
2023/06/05 03:47:00;;;;;;;0.05;0.05;;;13.30;99.90;;;;;;5001441;28;20042;-66
2023/06/05 03:49:28;;;;;;;0.10;0.10;;;13.30;99.90;;;;;;5012593;28;20117;-66
2023/06/05 03:52:00;;;;;;;0.00;0.00;;;13.30;99.90;;;;;;5011975;28;20042;-66
2023/06/05 03:54:32;;;;;;;0.00;0.00;;;13.30;99.90;;;;;;5009720;28;20049;-66
2023/06/05 03:57:00;;;;;;;0.00;0.00;;;13.30;99.90;;;;;;4997909;28;20340;-66
2023/06/05 03:59:28;;;;;;;0.05;0.05;;;13.30;99.90;;;;;;5010108;28;20057;-66
2023/06/05 04:01:55;;;;;;;0.00;0.00;;;13.30;99.90;;;;;;5007724;28;20034;-66
2023/06/05 04:04:20;;;;;;;0.00;0.00;;;13.30;99.90;;;;;;4996942;28;20085;-66
2023/06/05 04:06:46;;;;;;;0.00;0.00;;;13.40;99.90;;;;;;5009440;28;20069;-66
2023/06/05 04:09:12;;;;;;;0.30;0.20;;;13.40;99.90;;;;;;4997184;28;20052;-66
2023/06/05 04:11:42;;;;;;;0.00;0.00;;;13.40;99.90;;;;;;5011300;28;20042;-66
2023/06/05 04:14:09;;;;;;;0.10;0.10;;;13.30;99.90;;;;;;5007910;28;20042;-66
2023/06/05 04:16:38;;;;;;;0.20;0.20;;;13.30;99.90;;;;;;5001640;28;20436;-66
2023/06/05 04:19:09;;;;;;;0.00;0.00;;;13.40;99.90;;;;;;5004453;28;20136;-66
2023/06/05 04:21:35;;;;;;;0.20;0.15;;;13.40;99.90;;;;;;5002668;28;20096;-66
2023/06/05 04:24:03;;;;;;;0.00;0.00;;;13.40;99.90;;;;;;5009882;28;20104;-66
2023/06/05 04:26:28;;;;;;;0.00;0.00;;;13.40;99.90;;;;;;4998480;28;20394;-66
2023/06/05 04:28:56;;;;;;;0.00;0.00;;;13.40;99.90;;;;;;5009690;28;20137;-66
2023/06/05 04:31:23;;;;;;;0.57;0.55;;;13.40;99.90;;;;;;5010672;28;20442;-66
2023/06/05 04:33:49;;;;;;;0.00;0.00;;;13.40;99.90;;;;;;5008907;28;20050;-66
2023/06/05 04:36:17;;;;;;;0.10;0.10;;;13.50;99.90;;;;;;5039792;28;20108;-66
2023/06/05 04:38:43;;;;;;;0.08;0.08;;;13.50;99.90;;;;;;5007638;28;20442;-66
2023/06/05 04:41:09;;;;;;;0.20;0.20;;;13.50;99.90;;;;;;5011182;28;20065;-66
2023/06/05 04:43:36;;;;;;;0.73;0.45;;;13.50;99.90;;;;;;5009905;28;20045;-66
2023/06/05 04:46:02;;;;;;;0.00;0.00;;;13.60;99.90;;;;;;5011887;28;20054;-66
2023/06/05 04:48:28;;;;;;;0.00;0.00;;;13.60;99.90;;;;;;5009448;28;20073;-66
2023/06/05 04:50:55;;;;;;;0.00;0.00;;;13.60;99.90;;;;;;5009678;28;20085;-66
2023/06/05 04:53:21;;;;;;;0.00;0.00;;;13.60;99.90;;;;;;5011707;28;20050;-66
2023/06/05 04:55:48;;;;;;;0.00;0.00;;;13.60;99.90;;;;;;5004434;28;20096;-66
2023/06/05 04:58:15;;;;;;;0.00;0.00;;;13.70;99.90;;;;;;5006025;28;20123;-66
2023/06/05 05:00:44;;;;;;;0.00;0.00;;;13.60;99.90;;;;;;5007964;28;20038;-66
2023/06/05 05:03:13;;;;;;;0.90;0.90;;;13.70;99.90;;;;;;4995789;28;20085;-66
2023/06/05 05:05:39;;;;;;;0.00;0.00;;;13.70;99.90;;;;;;5011234;28;20042;-66
2023/06/05 05:08:05;;;;;;;0.00;0.00;;;13.70;99.90;;;;;;5013715;28;20148;-66
2023/06/05 05:10:31;;;;;;;0.80;0.63;;;13.80;99.90;;;;;;5015370;28;20401;-66
2023/06/05 05:12:56;;;;;;;0.10;0.10;;;13.70;99.90;;;;;;5007747;28;20052;-66
2023/06/05 05:15:22;;;;;;;0.10;0.10;;;13.80;99.90;;;;;;5008472;28;20625;-66
2023/06/05 05:17:49;;;;;;;0.10;0.10;;;13.80;99.90;;;;;;5012231;28;20049;-66
2023/06/05 05:20:15;;;;;;;0.00;0.00;;;13.80;99.90;;;;;;5013742;28;20410;-66
2023/06/05 05:22:40;;;;;;;0.20;0.20;;;13.80;99.90;;;;;;5015033;28;20045;-66
2023/06/05 05:25:06;;;;;;;0.10;0.10;;;13.80;99.90;;;;;;5012025;28;20060;-66
2023/06/05 05:27:32;;;;;;;0.00;0.00;;;13.80;99.90;;;;;;5001811;28;20045;-66
2023/06/05 05:29:57;;;;;;;0.00;0.00;;;13.80;99.90;;;;;;5008846;28;20062;-66
2023/06/05 05:32:23;;;;;;;0.00;0.00;;;13.80;99.90;;;;;;5005878;28;20524;-66
2023/06/05 05:34:50;;;;;;;0.00;0.00;;;13.90;99.90;;;;;;5015111;28;20061;-66
2023/06/05 05:37:16;;;;;;;0.00;0.00;;;13.90;99.90;;;;;;5015099;28;20113;-66
2023/06/05 05:39:42;;;;;;;0.00;0.00;;;13.90;99.90;;;;;;5004716;28;20105;-66
2023/06/05 05:42:07;;;;;;;0.05;0.05;;;13.90;99.90;;;;;;5009509;28;20474;-66
2023/06/05 05:44:33;;;;;;;0.00;0.00;;;13.90;99.90;;;;;;5002724;28;20038;-66
2023/06/05 05:46:58;;;;;;;0.00;0.00;;;13.90;99.90;;;;;;5014262;28;20469;-66
2023/06/05 05:49:24;;;;;;;0.25;0.25;;;13.80;99.90;;;;;;5014454;28;20057;-66
2023/06/05 05:51:50;;;;;;;0.00;0.00;;;13.80;99.90;;;;;;5006316;28;20077;-66
2023/06/05 05:54:16;;;;;;;0.17;0.17;;;13.90;99.90;;;;;;5006321;28;20481;-66
2023/06/05 05:56:42;;;;;;;1.00;0.77;;;13.90;99.90;;;;;;5015080;28;20133;-66
2023/06/05 05:59:07;;;;;;;0.00;0.00;;;13.90;99.90;;;;;;5014875;28;20053;-66
2023/06/05 06:01:33;;;;;;;0.05;0.05;;;13.90;99.90;;;;;;5009381;28;20091;-66
2023/06/05 06:03:59;;;;;;;0.00;0.00;;;13.90;99.90;;;;;;5013781;28;20121;-66
2023/06/05 06:06:24;;;;;;;0.15;0.15;;;13.90;99.90;;;;;;5014793;28;20050;-65
2023/06/05 06:08:50;;;;;;;0.52;0.52;;;13.90;99.90;;;;;;5005430;28;20034;-66
2023/06/05 06:11:16;;;;;;;0.45;0.45;;;13.90;99.90;;;;;;5006271;28;20489;-66
2023/06/05 06:13:43;;;;;;;0.20;0.20;;;13.90;99.90;;;;;;5013574;28;20132;-66
2023/06/05 06:16:08;;;;;;;0.00;0.00;;;13.90;99.90;;;;;;5012424;28;20053;-66
2023/06/05 06:18:34;;;;;;;0.38;0.38;;;13.90;99.90;;;;;;5011500;28;20056;-65
2023/06/05 06:21:00;;;;;;;0.10;0.10;;;13.90;99.90;;;;;;5005936;28;20413;-66
2023/06/05 06:23:26;;;;;;;0.00;0.00;;;14.00;99.90;;;;;;5014000;28;20125;-66
2023/06/05 06:25:51;;;;;;;0.10;0.10;;;14.00;99.90;;;;;;5009713;28;20037;-66
2023/06/05 06:28:19;;;;;;;0.05;0.05;;;14.00;99.90;;;;;;5001275;28;20046;-66
2023/06/05 06:30:45;;;;;;;0.00;0.00;;;14.00;99.90;;;;;;5013771;28;20493;-66
2023/06/05 06:33:10;;;;;;;0.10;0.10;;;14.10;99.90;;;;;;5013731;28;20046;-66
2023/06/05 06:35:36;;;;;;;0.80;0.80;;;14.10;99.90;;;;;;5008945;28;20038;-66
2023/06/05 06:38:02;;;;;;;0.05;0.05;;;14.10;99.90;;;;;;5013508;28;20046;-66
2023/06/05 06:40:29;;;;;;;1.00;0.65;;;14.10;99.90;;;;;;5013879;28;20033;-66
2023/06/05 06:42:55;;;;;;;0.17;0.17;;;14.00;99.90;;;;;;5013063;28;20393;-66
2023/06/05 06:45:21;;;;;;;0.00;0.00;;;14.10;99.90;;;;;;5000053;28;20069;-66
2023/06/05 06:47:46;;;;;;;0.10;0.10;;;14.20;99.90;;;;;;5007412;28;20046;-66
2023/06/05 06:50:14;;;;;;;0.00;0.00;;;14.20;99.90;;;;;;5008900;28;20069;-66
2023/06/05 06:52:39;;;;;;;0.10;0.10;;;14.30;99.90;;;;;;5004676;28;20029;-65
2023/06/05 06:55:06;;;;;;;1.27;1.08;;;14.30;99.90;;;;;;5028628;28;20060;-66
2023/06/05 06:57:32;;;;;;;0.00;0.00;;;14.40;99.90;;;;;;5008497;28;20113;-66
2023/06/05 06:59:57;;;;;;;0.30;0.30;;;14.40;99.90;;;;;;5003564;28;20132;-66
2023/06/05 07:02:25;;;;;;;0.30;0.20;;;14.40;99.90;;;;;;5008092;28;20466;-66
2023/06/05 07:04:53;;;;;;;0.10;0.10;;;14.40;99.90;;;;;;4997279;28;20073;-66
2023/06/05 07:07:21;;;;;;;0.00;0.00;;;14.40;99.90;;;;;;5003157;28;20089;-65
2023/06/05 07:09:50;;;;;;;0.05;0.05;;;14.50;99.90;;;;;;5010673;28;20045;-66
2023/06/05 07:12:19;;;;;;;0.10;0.10;;;14.50;99.90;;;;;;5012552;28;20048;-66
2023/06/05 07:14:44;;;;;;;0.17;0.17;;;14.50;99.90;;;;;;5003995;28;20129;-66
2023/06/05 07:17:10;;;;;;;0.00;0.00;;;14.50;99.90;;;;;;5008478;28;20541;-66
2023/06/05 07:19:36;;;;;;;1.38;0.45;;;14.50;99.90;;;;;;5012527;28;20125;-66
2023/06/05 07:22:06;;;;;;;0.00;0.00;;;14.50;99.90;;;;;;5005344;28;20046;-66
2023/06/05 07:24:35;;;;;;;0.25;0.25;;;14.50;99.90;;;;;;5011874;28;20101;-66
2023/06/05 07:27:02;;;;;;;0.15;0.15;;;14.60;99.90;;;;;;5012230;28;20088;-66
2023/06/05 07:29:27;;;;;;;0.10;0.10;;;14.60;99.90;;;;;;5012383;28;20471;-66
2023/06/05 07:31:55;;;;;;;0.00;0.00;;;14.60;99.90;;;;;;5004304;28;20050;-66
2023/06/05 07:34:23;;;;;;;0.00;0.00;;;14.60;99.90;;;;;;5008840;28;20034;-66
2023/06/05 07:36:51;;;;;;;0.10;0.10;;;14.70;99.90;;;;;;5001742;28;20483;-66
2023/06/05 07:39:17;;;;;;;0.20;0.20;;;14.80;99.90;;;;;;5021251;28;20091;-66
2023/06/05 07:41:43;;;;;;;0.00;0.00;;;14.80;99.90;;;;;;5004446;28;20037;-66
2023/06/05 07:44:15;;;;;;;0.00;0.00;;;14.80;99.90;;;;;;5011466;28;20477;-66
2023/06/05 07:46:45;;;;;;;0.00;0.00;;;14.80;99.90;;;;;;5026427;28;20045;-66
2023/06/05 07:49:11;;;;;;;0.20;0.20;;;14.90;99.90;;;;;;5009617;28;20042;-65
2023/06/05 07:51:37;;;;;;;0.22;0.22;;;14.90;99.90;;;;;;5012680;28;20557;-65
2023/06/05 07:54:05;;;;;;;0.30;0.30;;;14.90;99.90;;;;;;5012039;28;20107;-66
2023/06/05 07:56:32;;;;;;;0.13;0.13;;;15.10;99.90;;;;;;5028022;28;20121;-66
2023/06/05 07:58:57;;;;;;;0.00;0.00;;;15.40;99.90;;;;;;5001266;28;20037;-66
2023/06/05 08:01:23;;;;;;;0.00;0.00;;;15.50;99.90;;;;;;5010206;28;20061;-66
2023/06/05 08:03:49;;;;;;;0.30;0.30;;;15.50;99.90;;;;;;5012321;28;20379;-66
2023/06/05 08:06:15;;;;;;;0.10;0.10;;;15.50;99.90;;;;;;5006751;28;20052;-66
2023/06/05 08:08:41;;;;;;;0.10;0.10;;;15.50;99.90;;;;;;5007433;28;20053;-66
2023/06/05 08:11:07;;;;;;;0.00;0.00;;;15.60;99.90;;;;;;5007961;28;20537;-66
2023/06/05 08:13:32;;;;;;;0.00;0.00;;;15.60;99.90;;;;;;5001255;28;20046;-66
2023/06/05 08:15:58;;;;;;;0.10;0.10;;;15.50;99.90;;;;;;5011129;28;20036;-66
2023/06/05 08:18:23;;;;;;;0.30;0.30;;;15.50;99.90;;;;;;5012929;28;20517;-66
2023/06/05 08:20:50;;;;;;;0.05;0.05;;;15.40;99.90;;;;;;5022390;28;20345;-66
2023/06/05 08:23:16;;;;;;;0.00;0.00;;;15.50;99.90;;;;;;5002928;28;20124;-66
2023/06/05 08:25:42;;;;;;;0.00;0.00;;;15.50;99.90;;;;;;5002003;28;20112;-66
2023/06/05 08:28:08;;;;;;;0.00;0.00;;;15.70;99.90;;;;;;5005951;28;20042;-66
2023/06/05 08:30:33;;;;;;;0.52;0.52;;;15.70;99.90;;;;;;5004180;28;20042;-66
2023/06/05 08:32:59;;;;;;;0.38;0.38;;;15.70;99.90;;;;;;5006818;28;20148;-66
2023/06/05 08:35:25;;;;;;;0.08;0.08;;;15.80;99.90;;;;;;5011215;28;20038;-66
2023/06/05 08:37:50;;;;;;;0.00;0.00;;;15.90;99.90;;;;;;5012524;28;20495;-66
2023/06/05 08:40:18;;;;;;;0.00;0.00;;;15.90;99.90;;;;;;5008558;28;20184;-66
2023/06/05 08:42:44;;;;;;;0.30;0.30;;;15.90;99.90;;;;;;5014805;28;20041;-66
2023/06/05 08:45:09;;;;;;;0.10;0.10;;;16.00;99.90;;;;;;5015875;28;20046;-66
2023/06/05 08:47:40;;;;;;;0.00;0.00;;;16.00;99.90;;;;;;5014942;28;20441;-66
2023/06/05 08:50:07;;;;;;;0.00;0.00;;;16.10;99.90;;;;;;5004021;28;20038;-66
2023/06/05 08:52:36;;;;;;;0.10;0.10;;;16.10;99.90;;;;;;5008592;28;20397;-66
2023/06/05 08:55:07;;;;;;;0.43;0.43;;;16.10;99.90;;;;;;5016064;28;20056;-66
2023/06/05 08:57:36;;;;;;;0.10;0.10;;;16.10;99.90;;;;;;5001269;28;20123;-66
2023/06/05 09:00:07;;;;;;;0.45;0.45;;;16.20;99.90;;;;;;5036805;28;20429;-66
2023/06/05 09:02:37;;;;;;;0.00;0.00;;;16.20;99.90;;;;;;5024947;28;20054;-66
2023/06/05 09:05:03;;;;;;;0.10;0.10;;;16.40;99.90;;;;;;5003331;28;20069;-66
2023/06/05 09:07:33;;;;;;;0.38;0.38;;;16.50;99.90;;;;;;5015956;28;20092;-66
2023/06/05 09:09:58;;;;;;;0.17;0.17;;;16.60;99.90;;;;;;5015361;28;20461;-66
2023/06/05 09:12:26;;;;;;;1.10;0.22;;;16.70;99.90;;;;;;5006871;28;20053;-66
2023/06/05 09:14:52;;;;;;;0.08;0.08;;;16.80;99.90;;;;;;5013744;28;20096;-66
2023/06/05 09:17:21;;;;;;;0.00;0.00;;;16.80;99.90;;;;;;5005528;28;20477;-66
2023/06/05 09:19:47;;;;;;;0.15;0.15;;;16.90;99.90;;;;;;5015087;28;20089;-66
2023/06/05 09:22:13;;;;;;;0.00;0.00;;;17.00;99.90;;;;;;5015254;28;20073;-66
2023/06/05 09:24:40;;;;;;;0.08;0.08;;;17.00;99.90;;;;;;4999165;28;20057;-66
2023/06/05 09:27:16;;;;;;;0.00;0.00;;;17.00;99.90;;;;;;5007070;28;20038;-66
2023/06/05 09:29:43;;;;;;;0.00;0.00;;;17.20;99.90;;;;;;5001002;28;20109;-67
2023/06/05 09:32:18;;;;;;;0.10;0.10;;;17.50;99.90;;;;;;5014246;28;20057;-66
2023/06/05 09:34:45;;;;;;;0.10;0.10;;;17.50;99.90;;;;;;5015049;28;20045;-66
2023/06/05 09:37:12;;;;;;;0.00;0.00;;;17.70;99.90;;;;;;5002113;28;20486;-66
2023/06/05 09:39:40;;;;;;;0.45;0.30;;;17.90;99.90;;;;;;5019973;28;20053;-66
2023/06/05 09:42:06;;;;;;;0.00;0.00;;;17.70;99.90;;;;;;5014406;28;20045;-66
2023/06/05 09:44:33;;;;;;;0.50;0.50;;;18.10;99.90;;;;;;5014783;28;20425;-66
2023/06/05 09:47:08;;;;;;;0.35;0.35;;;18.50;99.90;;;;;;5005925;28;20091;-66
2023/06/05 09:49:40;;;;;;;0.43;0.43;;;18.80;99.90;;;;;;5013940;28;20405;-66
2023/06/05 09:52:11;;;;;;;0.45;0.45;;;19.00;99.90;;;;;;5004167;28;20050;-66
2023/06/05 09:54:42;;;;;;;0.00;0.00;;;19.00;99.90;;;;;;5007274;28;20065;-66
2023/06/05 09:57:09;;;;;;;0.00;0.00;;;19.10;99.90;;;;;;5002719;28;20045;-66
2023/06/05 09:59:41;;;;;;;0.32;0.32;;;19.50;99.90;;;;;;5007869;28;20088;-66
2023/06/05 10:02:08;;;;;;;0.10;0.10;;;19.30;99.90;;;;;;5004347;28;20125;-66
2023/06/05 10:04:42;;;;;;;0.00;0.00;;;19.60;99.90;;;;;;5014214;28;20042;-66
2023/06/05 10:07:08;;;;;;;0.38;0.38;;;19.60;99.90;;;;;;5013860;28;20034;-66
2023/06/05 10:09:35;;;;;;;0.17;0.17;;;19.90;99.90;;;;;;5001750;28;20482;-66
2023/06/05 10:12:03;;;;;;;0.00;0.00;;;19.90;99.90;;;;;;5010806;28;20038;-67
2023/06/05 10:14:29;;;;;;;0.00;0.00;;;19.90;99.90;;;;;;5009522;28;20045;-66
2023/06/05 10:16:56;;;;;;;0.00;0.00;;;20.00;99.90;;;;;;5011113;28;20050;-66
2023/06/05 10:19:24;;;;;;;0.10;0.10;;;20.10;99.90;;;;;;5014150;28;20046;-66
2023/06/05 10:21:50;;;;;;;0.00;0.00;;;20.20;99.90;;;;;;5013409;28;20049;-66
2023/06/05 10:24:23;;;;;;;0.95;0.57;;;20.40;99.90;;;;;;5004179;28;20177;-66
2023/06/05 10:27:09;;;;;;;0.00;0.00;;;20.50;99.90;;;;;;5005878;28;20057;-66
2023/06/05 10:30:09;;;;;;;0.63;0.60;;;20.20;99.90;;;;;;5012049;28;20065;-66
2023/06/05 10:33:04;;;;;;;0.15;0.15;;;20.20;99.90;;;;;;5013253;28;20054;-66
2023/06/05 10:35:52;;;;;;;0.10;0.10;;;20.20;99.90;;;;;;5004026;28;20407;-66
2023/06/05 10:38:26;;;;;;;0.10;0.10;;;19.70;99.90;;;;;;5011328;28;20128;-66
2023/06/05 10:40:55;;;;;;;;;;;19.70;99.90;;;;;;5000639;28;20057;-66
2023/06/05 10:43:31;;;;;;;0.03;0.03;;;19.90;99.90;;;;;;5011696;28;19921;-66
2023/06/05 10:45:58;;;;;;;0.47;0.30;;;19.90;99.90;;;;;;5008827;28;20481;-66
2023/06/05 10:49:01;;;;;;;0.00;0.00;;;19.80;99.90;;;;;;5005373;28;20053;-66
2023/06/05 10:51:37;;;;;;;0.10;0.00;;;19.60;99.90;;;;;;5001446;28;20121;-66
2023/06/05 10:54:04;;;;;;;0.00;0.00;;;19.90;99.90;;;;;;5010509;28;20077;-66
2023/06/05 10:56:56;;;;;;;0.00;0.00;;;20.00;99.90;;;;;;5010989;28;20041;-66
2023/06/05 10:59:26;;;;;;;0.00;0.00;;;19.60;99.90;;;;;;5009010;28;20096;-66
2023/06/05 11:02:16;;;;;;;0.00;0.00;;;19.80;99.90;;;;;;5028790;28;20041;-66
2023/06/05 11:04:47;;;;;;;0.00;0.00;;;20.00;99.90;;;;;;4997028;28;20050;-66
2023/06/05 11:07:21;;;;;;;0.20;0.10;;;20.30;99.90;;;;;;5034935;28;20073;-66
2023/06/05 11:10:04;;;;;;;0.17;0.17;;;20.40;99.90;;;;;;5004485;28;20050;-66
2023/06/05 11:12:42;;;;;;;;;;;20.60;99.90;;;;;;5003512;28;20042;-66
2023/06/05 11:15:08;;;;;;;0.10;0.10;;;20.90;99.90;;;;;;5013198;28;20388;-66
2023/06/05 11:17:35;;;;;;;0.95;0.30;;;21.00;99.90;;;;;;5012273;28;20049;-66
2023/06/05 11:20:06;;;;;;;0.08;0.08;;;20.60;99.90;;;;;;5010862;28;20056;-66
2023/06/05 11:22:32;;;;;;;0.20;0.20;;;20.70;99.90;;;;;;5000257;28;20042;-67
2023/06/05 11:25:24;;;;;;;0.20;0.20;;;21.10;99.90;;;;;;5012104;28;20065;-66
2023/06/05 11:28:07;;;;;;;0.43;0.30;;;20.70;99.90;;;;;;5009845;28;20050;-66
2023/06/05 11:30:45;;;;;;;0.00;0.00;;;20.30;99.90;;;;;;5012398;28;20046;-66
2023/06/05 11:33:14;;;;;;;0.35;0.32;;;20.80;99.90;;;;;;4999737;28;20048;-66
2023/06/05 11:35:42;;;;;;;0.00;0.00;;;20.80;99.90;;;;;;5009131;28;20045;-67
2023/06/05 11:38:16;;;;;;;0.10;0.10;;;21.10;99.90;;;;;;5006633;28;20046;-67
2023/06/05 11:40:43;;;;;;;0.00;0.00;;;20.60;99.90;;;;;;5003374;28;20042;-66
2023/06/05 11:43:10;;;;;;;0.00;0.00;;;20.50;99.90;;;;;;5009389;28;20046;-66
2023/06/05 11:45:37;;;;;;;0.30;0.30;;;21.00;99.90;;;;;;5006854;28;20038;-67
2023/06/05 11:48:13;;;;;;;0.47;0.10;;;21.00;99.90;;;;;;5012717;28;20042;-66
2023/06/05 11:50:54;;;;;;;0.15;0.15;;;21.20;99.90;;;;;;5005857;28;20042;-66
2023/06/05 11:53:20;;;;;;;0.00;0.00;;;21.60;99.90;;;;;;5007416;28;20039;-66
2023/06/05 11:58:25;;;;;;;0.47;0.47;;;21.60;99.90;;;;;;5008048;28;20065;-67
2023/06/05 12:00:52;;;;;;;1.95;0.70;;;21.50;99.90;;;;;;5001080;28;20052;-67
2023/06/05 12:03:18;;;;;;;0.47;0.45;;;22.00;99.90;;;;;;5002324;28;20058;-67
2023/06/05 12:05:45;;;;;;;0.10;0.10;;;21.50;99.90;;;;;;5009220;28;20088;-67
2023/06/05 12:08:29;;;;;;;0.00;0.00;;;21.10;99.90;;;;;;5012378;28;20046;-67
2023/06/05 12:10:58;;;;;;;0.10;0.10;;;21.20;99.90;;;;;;5001993;28;20507;-67
2023/06/05 12:13:44;;;;;;;0.00;0.00;;;21.00;99.90;;;;;;5007724;28;20045;-67
2023/06/05 12:16:09;;;;;;;0.52;0.17;;;20.70;99.90;;;;;;5012042;28;20493;-67
2023/06/05 12:18:35;;;;;;;0.10;0.10;;;21.00;99.90;;;;;;5012122;28;20042;-67
2023/06/05 12:21:01;;;;;;;0.03;0.03;;;21.40;99.90;;;;;;5002464;28;20045;-67
2023/06/05 12:23:30;;;;;;;0.15;0.15;;;21.70;99.90;;;;;;5000079;28;20042;-67
2023/06/05 12:26:03;;;;;;;0.70;0.55;;;22.00;99.90;;;;;;5012070;28;20081;-67
2023/06/05 12:28:30;;;;;;;0.10;0.10;;;22.00;99.90;;;;;;5010099;28;20065;-67
2023/06/05 12:30:56;;;;;;;0.10;0.10;;;22.10;99.90;;;;;;5010088;28;20133;-67
2023/06/05 12:33:26;;;;;;;0.00;0.00;;;22.30;99.90;;;;;;5010565;28;20034;-67
2023/06/05 12:36:04;;;;;;;0.00;0.00;;;22.20;99.90;;;;;;5011395;28;20033;-67
2023/06/05 12:38:30;;;;;;;0.00;0.00;;;21.70;99.90;;;;;;5005090;28;20045;-67
2023/06/05 12:40:57;;;;;;;0.00;0.00;;;22.10;99.90;;;;;;5004431;28;20474;-67
2023/06/05 12:43:22;;;;;;;0.00;0.00;;;22.50;99.90;;;;;;5011993;28;20050;-67
2023/06/05 12:45:49;;;;;;;0.00;0.00;;;22.50;99.90;;;;;;5002950;28;20042;-67
2023/06/05 12:48:15;;;;;;;0.68;0.20;;;22.80;99.80;;;;;;5007587;28;20046;-67
2023/06/05 12:50:44;;;;;;;0.63;0.35;;;23.00;99.90;;;;;;4995554;28;20097;-67
2023/06/05 12:53:09;;;;;;;0.38;0.38;;;22.90;99.80;;;;;;5008281;28;20046;-67
2023/06/05 12:55:35;;;;;;;0.38;0.28;;;23.10;99.90;;;;;;5010868;28;20041;-67